sensor_id;sensor_type;location;lat;lon;timestamp;P1;durP1;ratioP1;P2;durP2;ratioP2
69485;SDS011;56677;51.710;5.366;2022-12-31T07:49:14;2.63;;;1.58;;
69485;SDS011;56677;51.710;5.366;2022-12-31T07:51:39;6.63;;;1.87;;
69485;SDS011;56677;51.710;5.366;2022-12-31T07:54:05;3.50;;;1.80;;
69485;SDS011;56677;51.710;5.366;2022-12-31T07:56:30;2.47;;;1.27;;
69485;SDS011;56677;51.710;5.366;2022-12-31T08:01:32;2.95;;;1.30;;
69485;SDS011;56677;51.710;5.366;2022-12-31T08:04:03;3.60;;;1.30;;
69485;SDS011;56677;51.710;5.366;2022-12-31T08:09:02;2.55;;;1.23;;
69485;SDS011;56677;51.710;5.366;2022-12-31T08:11:42;2.60;;;1.30;;
69485;SDS011;56677;51.710;5.366;2022-12-31T08:14:11;2.67;;;1.40;;
69485;SDS011;56677;51.710;5.366;2022-12-31T08:16:37;3.45;;;1.30;;
69485;SDS011;56677;51.710;5.366;2022-12-31T08:19:02;3.77;;;1.40;;
69485;SDS011;56677;51.710;5.366;2022-12-31T08:26:36;2.42;;;1.67;;
69485;SDS011;56677;51.710;5.366;2022-12-31T08:29:15;4.05;;;1.60;;
69485;SDS011;56677;51.710;5.366;2022-12-31T08:31:47;2.92;;;1.42;;
69485;SDS011;56677;51.710;5.366;2022-12-31T08:37:00;3.67;;;1.63;;
69485;SDS011;56677;51.710;5.366;2022-12-31T08:42:26;3.78;;;1.20;;
69485;SDS011;56677;51.710;5.366;2022-12-31T08:49:47;1.77;;;1.23;;
69485;SDS011;56677;51.710;5.366;2022-12-31T08:52:14;3.43;;;1.37;;
69485;SDS011;56677;51.710;5.366;2022-12-31T08:54:39;2.10;;;1.30;;
69485;SDS011;56677;51.710;5.366;2022-12-31T08:59:50;2.38;;;1.13;;
69485;SDS011;56677;51.710;5.366;2022-12-31T09:07:39;4.73;;;1.67;;
69485;SDS011;56677;51.710;5.366;2022-12-31T09:10:18;3.17;;;1.20;;
69485;SDS011;56677;51.710;5.366;2022-12-31T09:15:39;3.25;;;1.33;;
69485;SDS011;56677;51.710;5.366;2022-12-31T09:18:06;2.00;;;1.27;;
69485;SDS011;56677;51.710;5.366;2022-12-31T09:20:33;2.53;;;1.33;;
69485;SDS011;56677;51.710;5.366;2022-12-31T09:22:58;2.65;;;1.13;;
69485;SDS011;56677;51.710;5.366;2022-12-31T09:25:24;5.18;;;1.58;;
69485;SDS011;56677;51.710;5.366;2022-12-31T09:30:18;3.65;;;1.60;;
69485;SDS011;56677;51.710;5.366;2022-12-31T09:35:18;3.03;;;1.38;;
69485;SDS011;56677;51.710;5.366;2022-12-31T09:37:50;2.88;;;1.10;;
69485;SDS011;56677;51.710;5.366;2022-12-31T09:43:06;4.63;;;1.30;;
69485;SDS011;56677;51.710;5.366;2022-12-31T09:45:38;3.85;;;1.45;;
69485;SDS011;56677;51.710;5.366;2022-12-31T09:55:44;2.63;;;1.20;;
69485;SDS011;56677;51.710;5.366;2022-12-31T10:00:58;2.45;;;1.10;;
69485;SDS011;56677;51.710;5.366;2022-12-31T10:11:05;2.88;;;1.52;;
69485;SDS011;56677;51.710;5.366;2022-12-31T10:37:09;2.17;;;1.02;;
69485;SDS011;56677;51.710;5.366;2022-12-31T10:47:37;2.40;;;1.25;;
69485;SDS011;56677;51.710;5.366;2022-12-31T10:50:25;4.15;;;1.55;;
69485;SDS011;56677;51.710;5.366;2022-12-31T11:00:17;3.53;;;1.40;;
69485;SDS011;56677;51.710;5.366;2022-12-31T11:15:31;5.47;;;1.20;;
69485;SDS011;56677;51.710;5.366;2022-12-31T11:18:05;4.88;;;1.33;;
69485;SDS011;56677;51.710;5.366;2022-12-31T11:33:23;3.40;;;1.27;;
69485;SDS011;56677;51.710;5.366;2022-12-31T11:36:04;1.80;;;1.00;;
69485;SDS011;56677;51.710;5.366;2022-12-31T11:38:32;2.42;;;1.10;;
69485;SDS011;56677;51.710;5.366;2022-12-31T11:43:26;2.47;;;1.20;;
69485;SDS011;56677;51.710;5.366;2022-12-31T11:51:22;3.20;;;1.40;;
69485;SDS011;56677;51.710;5.366;2022-12-31T11:56:39;2.65;;;1.20;;
69485;SDS011;56677;51.710;5.366;2022-12-31T11:59:08;4.03;;;1.60;;
69485;SDS011;56677;51.710;5.366;2022-12-31T12:04:07;2.00;;;1.27;;
69485;SDS011;56677;51.710;5.366;2022-12-31T12:06:32;3.65;;;1.15;;
69485;SDS011;56677;51.710;5.366;2022-12-31T12:09:09;2.75;;;1.33;;
69485;SDS011;56677;51.710;5.366;2022-12-31T12:11:37;3.05;;;1.35;;
69485;SDS011;56677;51.710;5.366;2022-12-31T12:14:25;2.23;;;1.30;;
69485;SDS011;56677;51.710;5.366;2022-12-31T12:16:53;1.92;;;1.25;;
69485;SDS011;56677;51.710;5.366;2022-12-31T12:19:19;2.67;;;1.30;;
69485;SDS011;56677;51.710;5.366;2022-12-31T12:21:45;3.00;;;1.50;;
69485;SDS011;56677;51.710;5.366;2022-12-31T12:24:18;3.13;;;1.47;;
69485;SDS011;56677;51.710;5.366;2022-12-31T12:26:44;3.00;;;1.10;;
69485;SDS011;56677;51.710;5.366;2022-12-31T12:34:24;3.05;;;1.00;;
69485;SDS011;56677;51.710;5.366;2022-12-31T12:36:50;1.95;;;1.10;;
69485;SDS011;56677;51.710;5.366;2022-12-31T12:39:22;3.60;;;1.40;;
69485;SDS011;56677;51.710;5.366;2022-12-31T12:41:58;1.65;;;1.20;;
69485;SDS011;56677;51.710;5.366;2022-12-31T12:44:23;3.10;;;1.20;;
69485;SDS011;56677;51.710;5.366;2022-12-31T12:46:48;2.67;;;1.35;;
69485;SDS011;56677;51.710;5.366;2022-12-31T12:49:23;4.70;;;1.88;;
69485;SDS011;56677;51.710;5.366;2022-12-31T13:04:25;2.17;;;1.10;;
69485;SDS011;56677;51.710;5.366;2022-12-31T13:09:41;2.83;;;1.52;;
69485;SDS011;56677;51.710;5.366;2022-12-31T13:12:19;3.10;;;1.52;;
69485;SDS011;56677;51.710;5.366;2022-12-31T13:19:49;4.13;;;1.30;;
69485;SDS011;56677;51.710;5.366;2022-12-31T13:22:18;3.20;;;1.40;;
69485;SDS011;56677;51.710;5.366;2022-12-31T13:27:21;10.45;;;1.77;;
69485;SDS011;56677;51.710;5.366;2022-12-31T13:29:48;6.45;;;1.70;;
69485;SDS011;56677;51.710;5.366;2022-12-31T13:32:16;12.00;;;1.70;;
69485;SDS011;56677;51.710;5.366;2022-12-31T13:34:42;8.85;;;1.60;;
69485;SDS011;56677;51.710;5.366;2022-12-31T13:37:16;5.63;;;1.58;;
69485;SDS011;56677;51.710;5.366;2022-12-31T13:39:42;5.67;;;1.50;;
69485;SDS011;56677;51.710;5.366;2022-12-31T13:44:38;4.45;;;1.45;;
69485;SDS011;56677;51.710;5.366;2022-12-31T13:47:09;4.78;;;1.90;;
69485;SDS011;56677;51.710;5.366;2022-12-31T13:49:45;5.80;;;1.60;;
69485;SDS011;56677;51.710;5.366;2022-12-31T13:54:56;7.70;;;1.70;;
69485;SDS011;56677;51.710;5.366;2022-12-31T14:00:04;5.07;;;2.38;;
69485;SDS011;56677;51.710;5.366;2022-12-31T14:02:42;5.45;;;2.60;;
69485;SDS011;56677;51.710;5.366;2022-12-31T14:05:24;5.57;;;3.13;;
69485;SDS011;56677;51.710;5.366;2022-12-31T14:07:52;10.10;;;3.07;;
69485;SDS011;56677;51.710;5.366;2022-12-31T14:10:19;4.60;;;2.40;;
69485;SDS011;56677;51.710;5.366;2022-12-31T14:12:48;9.07;;;2.67;;
69485;SDS011;56677;51.710;5.366;2022-12-31T14:15:18;5.90;;;2.55;;
69485;SDS011;56677;51.710;5.366;2022-12-31T14:17:46;5.20;;;2.42;;
69485;SDS011;56677;51.710;5.366;2022-12-31T14:20:25;4.90;;;2.37;;
69485;SDS011;56677;51.710;5.366;2022-12-31T14:23:01;4.85;;;2.55;;
69485;SDS011;56677;51.710;5.366;2022-12-31T14:25:29;5.25;;;2.15;;
69485;SDS011;56677;51.710;5.366;2022-12-31T14:27:57;4.63;;;2.50;;
69485;SDS011;56677;51.710;5.366;2022-12-31T14:30:26;3.90;;;2.03;;
69485;SDS011;56677;51.710;5.366;2022-12-31T14:32:59;3.47;;;2.20;;
69485;SDS011;56677;51.710;5.366;2022-12-31T14:38:05;4.93;;;2.05;;
69485;SDS011;56677;51.710;5.366;2022-12-31T14:40:37;5.20;;;2.67;;
69485;SDS011;56677;51.710;5.366;2022-12-31T14:43:11;5.45;;;2.45;;
69485;SDS011;56677;51.710;5.366;2022-12-31T14:45:46;7.23;;;2.70;;
69485;SDS011;56677;51.710;5.366;2022-12-31T14:48:22;5.07;;;2.25;;
69485;SDS011;56677;51.710;5.366;2022-12-31T14:50:49;7.32;;;2.55;;
69485;SDS011;56677;51.710;5.366;2022-12-31T14:53:20;6.10;;;2.30;;
69485;SDS011;56677;51.710;5.366;2022-12-31T14:55:46;8.35;;;2.30;;
69485;SDS011;56677;51.710;5.366;2022-12-31T14:58:28;8.52;;;2.67;;
69485;SDS011;56677;51.710;5.366;2022-12-31T15:00:55;6.13;;;1.90;;
69485;SDS011;56677;51.710;5.366;2022-12-31T15:08:41;7.93;;;2.38;;
69485;SDS011;56677;51.710;5.366;2022-12-31T15:11:14;7.78;;;2.78;;
69485;SDS011;56677;51.710;5.366;2022-12-31T15:21:57;6.32;;;2.67;;
69485;SDS011;56677;51.710;5.366;2022-12-31T15:24:25;8.93;;;2.47;;
69485;SDS011;56677;51.710;5.366;2022-12-31T15:26:54;6.57;;;2.60;;
69485;SDS011;56677;51.710;5.366;2022-12-31T15:29:24;10.23;;;2.35;;
69485;SDS011;56677;51.710;5.366;2022-12-31T15:31:50;10.68;;;2.75;;
69485;SDS011;56677;51.710;5.366;2022-12-31T15:34:26;6.53;;;2.70;;
69485;SDS011;56677;51.710;5.366;2022-12-31T15:36:53;5.78;;;2.30;;
69485;SDS011;56677;51.710;5.366;2022-12-31T15:39:23;5.03;;;2.40;;
69485;SDS011;56677;51.710;5.366;2022-12-31T15:41:48;7.70;;;2.70;;
69485;SDS011;56677;51.710;5.366;2022-12-31T15:44:18;6.80;;;2.50;;
69485;SDS011;56677;51.710;5.366;2022-12-31T15:46:46;11.20;;;2.47;;
69485;SDS011;56677;51.710;5.366;2022-12-31T15:49:16;10.45;;;2.80;;
69485;SDS011;56677;51.710;5.366;2022-12-31T15:52:00;9.23;;;2.63;;
69485;SDS011;56677;51.710;5.366;2022-12-31T15:54:47;6.20;;;2.17;;
69485;SDS011;56677;51.710;5.366;2022-12-31T15:57:17;8.30;;;1.97;;
69485;SDS011;56677;51.710;5.366;2022-12-31T15:59:42;6.25;;;2.20;;
69485;SDS011;56677;51.710;5.366;2022-12-31T16:02:15;7.20;;;2.33;;
69485;SDS011;56677;51.710;5.366;2022-12-31T16:04:42;6.93;;;2.20;;
69485;SDS011;56677;51.710;5.366;2022-12-31T16:07:08;6.03;;;2.60;;
69485;SDS011;56677;51.710;5.366;2022-12-31T16:09:33;6.10;;;2.17;;
69485;SDS011;56677;51.710;5.366;2022-12-31T16:11:59;7.90;;;2.53;;
69485;SDS011;56677;51.710;5.366;2022-12-31T16:14:33;9.63;;;2.40;;
69485;SDS011;56677;51.710;5.366;2022-12-31T16:16:59;4.88;;;1.92;;
69485;SDS011;56677;51.710;5.366;2022-12-31T16:21:56;6.80;;;2.58;;
69485;SDS011;56677;51.710;5.366;2022-12-31T16:24:31;7.03;;;2.50;;
69485;SDS011;56677;51.710;5.366;2022-12-31T16:27:06;5.15;;;2.13;;
69485;SDS011;56677;51.710;5.366;2022-12-31T16:29:34;7.18;;;2.53;;
69485;SDS011;56677;51.710;5.366;2022-12-31T16:31:59;6.60;;;1.73;;
69485;SDS011;56677;51.710;5.366;2022-12-31T16:34:25;8.43;;;2.45;;
69485;SDS011;56677;51.710;5.366;2022-12-31T16:37:00;8.63;;;2.23;;
69485;SDS011;56677;51.710;5.366;2022-12-31T16:39:27;4.30;;;1.67;;
69485;SDS011;56677;51.710;5.366;2022-12-31T16:42:05;7.82;;;2.30;;
69485;SDS011;56677;51.710;5.366;2022-12-31T16:44:30;5.75;;;2.08;;
69485;SDS011;56677;51.710;5.366;2022-12-31T16:46:57;5.00;;;2.00;;
69485;SDS011;56677;51.710;5.366;2022-12-31T16:49:22;6.43;;;2.45;;
69485;SDS011;56677;51.710;5.366;2022-12-31T16:51:48;7.10;;;2.10;;
69485;SDS011;56677;51.710;5.366;2022-12-31T16:54:30;7.30;;;2.43;;
69485;SDS011;56677;51.710;5.366;2022-12-31T16:56:56;8.10;;;2.63;;
69485;SDS011;56677;51.710;5.366;2022-12-31T16:59:23;6.53;;;2.50;;
69485;SDS011;56677;51.710;5.366;2022-12-31T17:01:49;15.65;;;5.05;;
69485;SDS011;56677;51.710;5.366;2022-12-31T17:04:17;12.77;;;4.80;;
69485;SDS011;56677;51.710;5.366;2022-12-31T17:06:42;11.85;;;4.57;;
69485;SDS011;56677;51.710;5.366;2022-12-31T17:11:36;18.30;;;4.90;;
69485;SDS011;56677;51.710;5.366;2022-12-31T17:16:31;19.48;;;5.18;;
69485;SDS011;56677;51.710;5.366;2022-12-31T17:18:57;18.00;;;5.88;;
69485;SDS011;56677;51.710;5.366;2022-12-31T17:21:24;14.73;;;5.20;;
69485;SDS011;56677;51.710;5.366;2022-12-31T17:23:51;15.85;;;4.75;;
69485;SDS011;56677;51.710;5.366;2022-12-31T17:26:24;15.38;;;5.05;;
69485;SDS011;56677;51.710;5.366;2022-12-31T17:28:50;15.98;;;5.45;;
69485;SDS011;56677;51.710;5.366;2022-12-31T17:31:30;14.47;;;4.73;;
69485;SDS011;56677;51.710;5.366;2022-12-31T17:34:16;13.68;;;4.88;;
69485;SDS011;56677;51.710;5.366;2022-12-31T17:39:17;11.80;;;4.85;;
69485;SDS011;56677;51.710;5.366;2022-12-31T17:41:43;13.38;;;5.43;;
69485;SDS011;56677;51.710;5.366;2022-12-31T17:44:10;14.33;;;4.37;;
69485;SDS011;56677;51.710;5.366;2022-12-31T17:46:39;14.88;;;4.25;;
69485;SDS011;56677;51.710;5.366;2022-12-31T17:49:04;11.85;;;4.80;;
69485;SDS011;56677;51.710;5.366;2022-12-31T17:51:29;18.13;;;5.45;;
69485;SDS011;56677;51.710;5.366;2022-12-31T17:53:54;13.30;;;5.18;;
69485;SDS011;56677;51.710;5.366;2022-12-31T17:56:19;13.00;;;4.43;;
69485;SDS011;56677;51.710;5.366;2022-12-31T17:58:46;12.90;;;4.10;;
69485;SDS011;56677;51.710;5.366;2022-12-31T18:01:13;10.10;;;4.82;;
69485;SDS011;56677;51.710;5.366;2022-12-31T18:03:39;13.40;;;4.30;;
69485;SDS011;56677;51.710;5.366;2022-12-31T18:06:04;13.50;;;4.10;;
69485;SDS011;56677;51.710;5.366;2022-12-31T18:08:29;12.77;;;4.47;;
69485;SDS011;56677;51.710;5.366;2022-12-31T18:10:55;10.40;;;4.80;;
69485;SDS011;56677;51.710;5.366;2022-12-31T18:13:22;10.37;;;3.50;;
69485;SDS011;56677;51.710;5.366;2022-12-31T18:15:47;20.20;;;7.07;;
69485;SDS011;56677;51.710;5.366;2022-12-31T18:20:44;12.07;;;3.90;;
69485;SDS011;56677;51.710;5.366;2022-12-31T18:23:16;11.03;;;3.93;;
69485;SDS011;56677;51.710;5.366;2022-12-31T18:25:42;12.93;;;4.38;;
69485;SDS011;56677;51.710;5.366;2022-12-31T18:28:07;14.10;;;4.45;;
69485;SDS011;56677;51.710;5.366;2022-12-31T18:30:32;12.93;;;3.93;;
69485;SDS011;56677;51.710;5.366;2022-12-31T18:32:57;15.05;;;4.38;;
69485;SDS011;56677;51.710;5.366;2022-12-31T18:35:22;10.73;;;3.83;;
69485;SDS011;56677;51.710;5.366;2022-12-31T18:37:48;10.80;;;3.67;;
69485;SDS011;56677;51.710;5.366;2022-12-31T18:40:13;9.05;;;3.63;;
69485;SDS011;56677;51.710;5.366;2022-12-31T18:42:38;12.48;;;3.80;;
69485;SDS011;56677;51.710;5.366;2022-12-31T18:45:04;12.03;;;3.83;;
69485;SDS011;56677;51.710;5.366;2022-12-31T18:47:29;9.07;;;3.75;;
69485;SDS011;56677;51.710;5.366;2022-12-31T18:49:54;9.17;;;3.67;;
69485;SDS011;56677;51.710;5.366;2022-12-31T18:52:20;9.02;;;3.83;;
69485;SDS011;56677;51.710;5.366;2022-12-31T18:54:45;8.75;;;3.40;;
69485;SDS011;56677;51.710;5.366;2022-12-31T18:57:11;8.33;;;3.13;;
69485;SDS011;56677;51.710;5.366;2022-12-31T18:59:37;8.93;;;3.60;;
69485;SDS011;56677;51.710;5.366;2022-12-31T19:02:02;11.93;;;4.40;;
69485;SDS011;56677;51.710;5.366;2022-12-31T19:04:27;18.27;;;4.90;;
69485;SDS011;56677;51.710;5.366;2022-12-31T19:06:52;13.23;;;5.90;;
69485;SDS011;56677;51.710;5.366;2022-12-31T19:09:17;15.68;;;8.32;;
69485;SDS011;56677;51.710;5.366;2022-12-31T19:11:42;20.13;;;10.80;;
69485;SDS011;56677;51.710;5.366;2022-12-31T19:14:18;21.93;;;10.80;;
69485;SDS011;56677;51.710;5.366;2022-12-31T19:16:44;27.88;;;12.13;;
69485;SDS011;56677;51.710;5.366;2022-12-31T19:19:09;19.80;;;12.20;;
69485;SDS011;56677;51.710;5.366;2022-12-31T19:21:34;26.13;;;12.23;;
69485;SDS011;56677;51.710;5.366;2022-12-31T19:23:59;24.40;;;11.88;;
69485;SDS011;56677;51.710;5.366;2022-12-31T19:26:24;30.70;;;11.80;;
69485;SDS011;56677;51.710;5.366;2022-12-31T19:28:49;27.92;;;11.57;;
69485;SDS011;56677;51.710;5.366;2022-12-31T19:31:14;26.90;;;11.82;;
69485;SDS011;56677;51.710;5.366;2022-12-31T19:33:40;29.17;;;12.30;;
69485;SDS011;56677;51.710;5.366;2022-12-31T19:36:06;26.77;;;11.17;;
69485;SDS011;56677;51.710;5.366;2022-12-31T19:38:33;30.00;;;10.75;;
69485;SDS011;56677;51.710;5.366;2022-12-31T19:40:59;41.87;;;16.00;;
69485;SDS011;56677;51.710;5.366;2022-12-31T19:43:24;28.27;;;14.95;;
69485;SDS011;56677;51.710;5.366;2022-12-31T19:45:50;38.60;;;14.80;;
69485;SDS011;56677;51.710;5.366;2022-12-31T19:48:19;43.43;;;13.70;;
69485;SDS011;56677;51.710;5.366;2022-12-31T19:50:45;32.38;;;13.35;;
69485;SDS011;56677;51.710;5.366;2022-12-31T19:53:12;34.88;;;12.35;;
69485;SDS011;56677;51.710;5.366;2022-12-31T19:55:38;27.60;;;11.77;;
69485;SDS011;56677;51.710;5.366;2022-12-31T19:58:03;26.13;;;10.23;;
69485;SDS011;56677;51.710;5.366;2022-12-31T20:00:28;26.13;;;10.57;;
69485;SDS011;56677;51.710;5.366;2022-12-31T20:02:54;29.45;;;11.32;;
69485;SDS011;56677;51.710;5.366;2022-12-31T20:05:19;26.75;;;9.95;;
69485;SDS011;56677;51.710;5.366;2022-12-31T20:07:44;27.98;;;9.20;;
69485;SDS011;56677;51.710;5.366;2022-12-31T20:10:09;29.20;;;9.03;;
69485;SDS011;56677;51.710;5.366;2022-12-31T20:12:35;22.67;;;9.00;;
69485;SDS011;56677;51.710;5.366;2022-12-31T20:15:00;27.53;;;10.87;;
69485;SDS011;56677;51.710;5.366;2022-12-31T20:17:25;23.87;;;9.93;;
69485;SDS011;56677;51.710;5.366;2022-12-31T20:19:51;22.60;;;9.23;;
69485;SDS011;56677;51.710;5.366;2022-12-31T20:22:16;22.83;;;9.63;;
69485;SDS011;56677;51.710;5.366;2022-12-31T20:24:41;25.33;;;9.67;;
69485;SDS011;56677;51.710;5.366;2022-12-31T20:27:06;19.98;;;9.48;;
69485;SDS011;56677;51.710;5.366;2022-12-31T20:29:31;31.60;;;10.07;;
69485;SDS011;56677;51.710;5.366;2022-12-31T20:31:56;23.07;;;9.63;;
69485;SDS011;56677;51.710;5.366;2022-12-31T20:34:22;24.42;;;8.88;;
69485;SDS011;56677;51.710;5.366;2022-12-31T20:36:47;31.92;;;11.13;;
69485;SDS011;56677;51.710;5.366;2022-12-31T20:39:12;19.03;;;9.63;;
69485;SDS011;56677;51.710;5.366;2022-12-31T20:41:37;24.17;;;9.45;;
69485;SDS011;56677;51.710;5.366;2022-12-31T20:44:02;22.10;;;8.70;;
69485;SDS011;56677;51.710;5.366;2022-12-31T20:46:28;26.27;;;9.32;;
69485;SDS011;56677;51.710;5.366;2022-12-31T20:48:54;23.42;;;9.65;;
69485;SDS011;56677;51.710;5.366;2022-12-31T20:51:20;32.65;;;10.57;;
69485;SDS011;56677;51.710;5.366;2022-12-31T20:53:52;29.20;;;10.20;;
69485;SDS011;56677;51.710;5.366;2022-12-31T20:56:17;26.30;;;9.10;;
69485;SDS011;56677;51.710;5.366;2022-12-31T20:58:43;24.17;;;9.00;;
69485;SDS011;56677;51.710;5.366;2022-12-31T21:01:08;23.07;;;9.13;;
69485;SDS011;56677;51.710;5.366;2022-12-31T21:03:35;24.73;;;9.52;;
69485;SDS011;56677;51.710;5.366;2022-12-31T21:06:00;23.13;;;8.80;;
69485;SDS011;56677;51.710;5.366;2022-12-31T21:08:25;26.25;;;8.93;;
69485;SDS011;56677;51.710;5.366;2022-12-31T21:10:50;25.80;;;9.85;;
69485;SDS011;56677;51.710;5.366;2022-12-31T21:13:15;20.48;;;9.13;;
69485;SDS011;56677;51.710;5.366;2022-12-31T21:15:41;33.20;;;9.73;;
69485;SDS011;56677;51.710;5.366;2022-12-31T21:18:06;24.33;;;9.15;;
69485;SDS011;56677;51.710;5.366;2022-12-31T21:20:31;32.00;;;9.57;;
69485;SDS011;56677;51.710;5.366;2022-12-31T21:22:56;20.77;;;9.45;;
69485;SDS011;56677;51.710;5.366;2022-12-31T21:25:21;24.80;;;9.33;;
69485;SDS011;56677;51.710;5.366;2022-12-31T21:27:46;26.15;;;9.25;;
69485;SDS011;56677;51.710;5.366;2022-12-31T21:30:11;23.02;;;9.43;;
69485;SDS011;56677;51.710;5.366;2022-12-31T21:32:37;20.60;;;9.63;;
69485;SDS011;56677;51.710;5.366;2022-12-31T21:35:02;23.08;;;8.50;;
69485;SDS011;56677;51.710;5.366;2022-12-31T21:37:27;23.63;;;8.40;;
69485;SDS011;56677;51.710;5.366;2022-12-31T21:39:52;18.13;;;8.52;;
69485;SDS011;56677;51.710;5.366;2022-12-31T21:42:17;27.13;;;8.70;;
69485;SDS011;56677;51.710;5.366;2022-12-31T21:44:42;26.00;;;8.88;;
69485;SDS011;56677;51.710;5.366;2022-12-31T21:47:07;24.13;;;8.73;;
69485;SDS011;56677;51.710;5.366;2022-12-31T21:49:33;23.77;;;9.10;;
69485;SDS011;56677;51.710;5.366;2022-12-31T21:51:58;19.48;;;8.57;;
69485;SDS011;56677;51.710;5.366;2022-12-31T21:54:23;19.73;;;9.50;;
69485;SDS011;56677;51.710;5.366;2022-12-31T21:56:48;20.05;;;8.40;;
69485;SDS011;56677;51.710;5.366;2022-12-31T21:59:13;14.67;;;8.47;;
69485;SDS011;56677;51.710;5.366;2022-12-31T22:01:38;32.38;;;8.57;;
69485;SDS011;56677;51.710;5.366;2022-12-31T22:04:04;27.63;;;13.20;;
69485;SDS011;56677;51.710;5.366;2022-12-31T22:06:30;19.83;;;12.30;;
69485;SDS011;56677;51.710;5.366;2022-12-31T22:08:56;23.52;;;14.75;;
69485;SDS011;56677;51.710;5.366;2022-12-31T22:11:22;30.23;;;14.50;;
69485;SDS011;56677;51.710;5.366;2022-12-31T22:13:48;22.98;;;14.27;;
69485;SDS011;56677;51.710;5.366;2022-12-31T22:16:13;21.90;;;14.57;;
69485;SDS011;56677;51.710;5.366;2022-12-31T22:18:39;18.60;;;14.83;;
69485;SDS011;56677;51.710;5.366;2022-12-31T22:21:11;25.38;;;16.55;;
69485;SDS011;56677;51.710;5.366;2022-12-31T22:23:37;31.73;;;15.83;;
69485;SDS011;56677;51.710;5.366;2022-12-31T22:26:03;29.33;;;15.40;;
69485;SDS011;56677;51.710;5.366;2022-12-31T22:28:28;25.67;;;13.80;;
69485;SDS011;56677;51.710;5.366;2022-12-31T22:30:53;21.83;;;13.10;;
69485;SDS011;56677;51.710;5.366;2022-12-31T22:33:19;23.63;;;13.00;;
69485;SDS011;56677;51.710;5.366;2022-12-31T22:35:44;25.10;;;14.05;;
69485;SDS011;56677;51.710;5.366;2022-12-31T22:38:09;19.30;;;14.17;;
69485;SDS011;56677;51.710;5.366;2022-12-31T22:40:34;23.43;;;13.20;;
69485;SDS011;56677;51.710;5.366;2022-12-31T22:42:59;29.45;;;13.32;;
69485;SDS011;56677;51.710;5.366;2022-12-31T22:45:25;20.50;;;12.83;;
69485;SDS011;56677;51.710;5.366;2022-12-31T22:47:50;24.13;;;13.43;;
69485;SDS011;56677;51.710;5.366;2022-12-31T22:50:15;22.45;;;12.52;;
69485;SDS011;56677;51.710;5.366;2022-12-31T22:52:40;22.97;;;11.93;;
69485;SDS011;56677;51.710;5.366;2022-12-31T22:55:06;24.13;;;12.23;;
69485;SDS011;56677;51.710;5.366;2022-12-31T22:57:31;24.25;;;12.15;;
69485;SDS011;56677;51.710;5.366;2022-12-31T22:59:56;31.88;;;11.73;;
69485;SDS011;56677;51.710;5.366;2022-12-31T23:02:21;28.67;;;10.90;;
69485;SDS011;56677;51.710;5.366;2022-12-31T23:04:46;23.47;;;8.77;;
69485;SDS011;56677;51.710;5.366;2022-12-31T23:07:11;20.00;;;11.05;;
69485;SDS011;56677;51.710;5.366;2022-12-31T23:09:36;24.90;;;12.85;;
69485;SDS011;56677;51.710;5.366;2022-12-31T23:12:03;33.95;;;22.05;;
69485;SDS011;56677;51.710;5.366;2022-12-31T23:14:28;35.35;;;22.98;;
69485;SDS011;56677;51.710;5.366;2022-12-31T23:16:53;35.10;;;22.90;;
69485;SDS011;56677;51.710;5.366;2022-12-31T23:19:18;43.63;;;29.77;;
69485;SDS011;56677;51.710;5.366;2022-12-31T23:21:43;50.08;;;33.90;;
69485;SDS011;56677;51.710;5.366;2022-12-31T23:24:09;52.00;;;34.27;;
69485;SDS011;56677;51.710;5.366;2022-12-31T23:26:34;50.75;;;35.67;;
69485;SDS011;56677;51.710;5.366;2022-12-31T23:28:59;45.67;;;32.37;;
69485;SDS011;56677;51.710;5.366;2022-12-31T23:31:24;44.53;;;31.33;;
69485;SDS011;56677;51.710;5.366;2022-12-31T23:33:49;42.13;;;30.33;;
69485;SDS011;56677;51.710;5.366;2022-12-31T23:36:14;47.65;;;30.75;;
69485;SDS011;56677;51.710;5.366;2022-12-31T23:38:39;49.15;;;31.63;;
69485;SDS011;56677;51.710;5.366;2022-12-31T23:41:11;45.10;;;29.77;;
69485;SDS011;56677;51.710;5.366;2022-12-31T23:43:36;45.78;;;30.27;;
69485;SDS011;56677;51.710;5.366;2022-12-31T23:46:01;42.72;;;30.10;;
69485;SDS011;56677;51.710;5.366;2022-12-31T23:48:26;42.63;;;28.30;;
